^^
Marion, Virginia Banner
 

Adwolf, VA. Station Historical Data
[ Providing Data Since 6/07/2007 ]
Station Historical Data
Daily Summary for October 13, 2017 Units:  English    Metric   Both
« Previous Day
Next Day »
Daily Weekly Monthly Yearly Custom
  High: Low: Average:
Temperature: 72.9 °F 59.1 °F 65.1 °F
Dew Point: 61.0 °F 56.1 °F 58.7 °F
Humidity: 90% 63% 80%
Wind Speed: 17.3mph 1.2mph 9.1mph
Wind Gust: 17.3mph - -
Wind- - NE
Pressure: 30.23 in 30.13 in -
Precipitation: 0.00 in    
Historical Graphs
 
 
Tabular Data for October 13, 2017
Time Temperature Dew Point Pressure Wind Wind Speed Wind Gust Humidity Rainfall Rate (Hourly) solar Conditions
00:00 65.4 °F 59.8 °F 30.14 in ENE 6.0 mph 6.0 mph 82% 0.00 in WeatherDisplay:10.37 W/m2 OVC
00:05 65.4 °F 59.8 °F 30.14 in ENE 5.8 mph 5.8 mph 82% 0.00 in WeatherDisplay:10.37 W/m2 OVC
00:10 65.4 °F 59.8 °F 30.14 in NNE 4.6 mph 4.6 mph 82% 0.00 in WeatherDisplay:10.37 W/m2 OVC
00:15 65.4 °F 59.8 °F 30.13 in East 3.5 mph 3.5 mph 82% 0.00 in WeatherDisplay:10.37 W/m2 OVC
00:16 65.4 °F 59.8 °F 30.13 in East 4.0 mph 4.0 mph 82% 0.00 in WeatherDisplay:10.37 W/m2 OVC
00:21 65.3 °F 60.0 °F 30.14 in NNE 5.8 mph 5.8 mph 83% 0.00 in WeatherDisplay:10.37 W/m2 OVC
00:26 65.2 °F 59.9 °F 30.14 in NNE 6.0 mph 6.0 mph 83% 0.00 in WeatherDisplay:10.37 W/m2 OVC
00:31 65.2 °F 59.9 °F 30.14 in East 5.8 mph 5.8 mph 83% 0.00 in WeatherDisplay:10.37 W/m2 OVC
00:36 65.2 °F 59.9 °F 30.14 in NNE 7.0 mph 7.0 mph 83% 0.00 in WeatherDisplay:10.37 W/m2 OVC
00:41 65.2 °F 59.9 °F 30.14 in NNE 5.0 mph 5.0 mph 83% 0.00 in WeatherDisplay:10.37 W/m2 OVC
00:46 65.2 °F 59.9 °F 30.14 in East 4.6 mph 4.6 mph 83% 0.00 in WeatherDisplay:10.37 W/m2 OVC
00:51 65.1 °F 59.8 °F 30.14 in East 5.8 mph 5.8 mph 83% 0.00 in WeatherDisplay:10.37 W/m2 OVC
00:56 65.0 °F 59.7 °F 30.14 in ENE 5.8 mph 5.8 mph 83% 0.00 in WeatherDisplay:10.37 W/m2 OVC
01:01 65.0 °F 59.7 °F 30.14 in ENE 8.1 mph 8.1 mph 83% 0.00 in WeatherDisplay:10.37 W/m2 OVC
01:06 65.0 °F 59.7 °F 30.14 in NNE 8.1 mph 8.1 mph 83% 0.00 in WeatherDisplay:10.37 W/m2 OVC
01:11 65.0 °F 59.7 °F 30.14 in NE 11.0 mph 11.0 mph 83% 0.00 in WeatherDisplay:10.37 W/m2 OVC
01:16 64.9 °F 59.6 °F 30.14 in NE 9.2 mph 9.2 mph 83% 0.00 in WeatherDisplay:10.37 W/m2 OVC
01:21 64.9 °F 59.6 °F 30.14 in North 10.4 mph 10.4 mph 83% 0.00 in WeatherDisplay:10.37 W/m2 OVC
01:26 64.9 °F 59.6 °F 30.14 in North 7.0 mph 7.0 mph 83% 0.00 in WeatherDisplay:10.37 W/m2 -DZ
01:31 64.9 °F 59.6 °F 30.14 in NNE 5.8 mph 5.8 mph 83% 0.00 in WeatherDisplay:10.37 W/m2 -DZ
01:36 64.8 °F 59.5 °F 30.14 in ENE 9.2 mph 9.2 mph 83% 0.00 in WeatherDisplay:10.37 W/m2 -DZ
01:41 64.7 °F 59.4 °F 30.14 in East 9.2 mph 9.2 mph 83% 0.00 in WeatherDisplay:10.37 W/m2 -DZ
01:46 64.5 °F 59.2 °F 30.15 in East 5.8 mph 5.8 mph 83% 0.00 in WeatherDisplay:10.37 W/m2 OVC
01:51 64.5 °F 59.2 °F 30.15 in NE 6.9 mph 6.9 mph 83% 0.00 in WeatherDisplay:10.37 W/m2 OVC
01:56 64.5 °F 59.2 °F 30.15 in East 8.0 mph 8.0 mph 83% 0.00 in WeatherDisplay:10.37 W/m2 OVC
02:01 64.4 °F 59.1 °F 30.15 in NNE 8.1 mph 8.1 mph 83% 0.00 in WeatherDisplay:10.37 W/m2 OVC
02:06 64.5 °F 59.2 °F 30.15 in SE 8.1 mph 8.1 mph 83% 0.00 in WeatherDisplay:10.37 W/m2 OVC
02:11 64.4 °F 59.1 °F 30.15 in East 4.6 mph 4.6 mph 83% 0.00 in WeatherDisplay:10.37 W/m2 OVC
02:16 64.2 °F 58.9 °F 30.15 in East 10.4 mph 10.4 mph 83% 0.00 in WeatherDisplay:10.37 W/m2 OVC
02:21 64.0 °F 58.7 °F 30.15 in ENE 10.4 mph 10.4 mph 83% 0.00 in WeatherDisplay:10.37 W/m2 OVC
02:26 64.0 °F 58.7 °F 30.15 in NNE 4.6 mph 4.6 mph 83% 0.00 in WeatherDisplay:10.37 W/m2 OVC
02:31 63.9 °F 59.0 °F 30.15 in North 9.2 mph 9.2 mph 84% 0.00 in WeatherDisplay:10.37 W/m2 OVC
02:36 63.7 °F 58.8 °F 30.15 in NE 5.0 mph 5.0 mph 84% 0.00 in WeatherDisplay:10.37 W/m2 OVC
02:41 63.7 °F 58.8 °F 30.15 in NE 7.0 mph 7.0 mph 84% 0.00 in WeatherDisplay:10.37 W/m2 OVC
02:46 63.5 °F 58.6 °F 30.15 in NE 5.0 mph 5.0 mph 84% 0.00 in WeatherDisplay:10.37 W/m2 OVC
02:51 63.4 °F 58.5 °F 30.15 in East 6.9 mph 6.9 mph 84% 0.00 in WeatherDisplay:10.37 W/m2 OVC
02:56 63.4 °F 58.5 °F 30.15 in NNE 6.9 mph 6.9 mph 84% 0.00 in WeatherDisplay:10.37 W/m2 OVC
03:01 63.4 °F 58.8 °F 30.15 in East 10.4 mph 10.4 mph 85% 0.00 in WeatherDisplay:10.37 W/m2 OVC
03:06 63.3 °F 58.4 °F 30.15 in NE 11.0 mph 11.0 mph 84% 0.00 in WeatherDisplay:10.37 W/m2 OVC
03:11 63.4 °F 58.5 °F 30.15 in ENE 11.5 mph 11.5 mph 84% 0.00 in WeatherDisplay:10.37 W/m2 OVC
03:16 63.4 °F 58.5 °F 30.15 in North 8.1 mph 8.1 mph 84% 0.00 in WeatherDisplay:10.37 W/m2 OVC
03:21 63.3 °F 58.4 °F 30.15 in NNE 9.2 mph 9.2 mph 84% 0.00 in WeatherDisplay:10.37 W/m2 OVC
03:26 63.1 °F 58.5 °F 30.15 in ENE 9.2 mph 9.2 mph 85% 0.00 in WeatherDisplay:10.37 W/m2 OVC
03:31 62.9 °F 58.3 °F 30.15 in NE 9.2 mph 9.2 mph 85% 0.00 in WeatherDisplay:10.37 W/m2 OVC
03:36 62.8 °F 58.5 °F 30.15 in East 5.8 mph 5.8 mph 86% 0.00 in WeatherDisplay:10.37 W/m2 OVC
03:41 62.7 °F 58.5 °F 30.15 in NE 6.9 mph 6.9 mph 86% 0.00 in WeatherDisplay:10.37 W/m2 OVC
03:46 62.6 °F 58.4 °F 30.15 in NE 10.4 mph 10.4 mph 86% 0.00 in WeatherDisplay:10.37 W/m2 OVC
03:51 62.6 °F 58.4 °F 30.16 in NNE 9.0 mph 9.0 mph 86% 0.00 in WeatherDisplay:10.37 W/m2 OVC
03:56 62.5 °F 58.3 °F 30.15 in NNE 10.4 mph 10.4 mph 86% 0.00 in WeatherDisplay:10.37 W/m2 OVC
04:01 62.6 °F 58.3 °F 30.16 in NE 6.0 mph 10.0 mph 86% 0.00 in WeatherDisplay:10.37 W/m2 OVC
04:06 62.3 °F 58.1 °F 30.15 in NE 10.4 mph 10.4 mph 86% 0.00 in WeatherDisplay:10.37 W/m2 OVC
04:11 62.3 °F 58.1 °F 30.15 in NNE 9.0 mph 9.0 mph 86% 0.00 in WeatherDisplay:10.37 W/m2 OVC
04:16 62.4 °F 58.2 °F 30.15 in NNE 8.1 mph 8.1 mph 86% 0.00 in WeatherDisplay:10.37 W/m2 OVC
04:21 62.2 °F 58.3 °F 30.15 in ENE 6.0 mph 6.0 mph 87% 0.00 in WeatherDisplay:10.37 W/m2 OVC
04:26 62.2 °F 58.3 °F 30.15 in NE 10.4 mph 10.4 mph 87% 0.00 in WeatherDisplay:10.37 W/m2 OVC
04:31 62.2 °F 58.3 °F 30.15 in NNE 10.4 mph 10.4 mph 87% 0.00 in WeatherDisplay:10.37 W/m2 OVC
04:36 62.2 °F 58.3 °F 30.15 in NNE 10.4 mph 10.4 mph 87% 0.00 in WeatherDisplay:10.37 W/m2 OVC
04:41 62.0 °F 58.1 °F 30.15 in NE 9.2 mph 9.2 mph 87% 0.00 in WeatherDisplay:10.37 W/m2 OVC
04:46 62.0 °F 58.1 °F 30.16 in NE 11.5 mph 11.5 mph 87% 0.00 in WeatherDisplay:10.37 W/m2 OVC
04:51 61.8 °F 57.9 °F 30.15 in NNE 9.2 mph 9.2 mph 87% 0.00 in WeatherDisplay:10.37 W/m2 OVC
04:56 61.8 °F 57.9 °F 30.15 in NE 11.5 mph 11.5 mph 87% 0.00 in WeatherDisplay:10.37 W/m2 OVC
05:01 61.7 °F 58.1 °F 30.15 in NNE 11.5 mph 11.5 mph 88% 0.00 in WeatherDisplay:10.37 W/m2 OVC
05:06 61.6 °F 58.0 °F 30.16 in NE 10.4 mph 10.4 mph 88% 0.00 in WeatherDisplay:10.37 W/m2 OVC
05:11 61.6 °F 58.0 °F 30.16 in North 10.4 mph 10.4 mph 88% 0.00 in WeatherDisplay:10.37 W/m2 OVC
05:16 61.5 °F 57.9 °F 30.16 in NNE 10.4 mph 10.4 mph 88% 0.00 in WeatherDisplay:10.37 W/m2 OVC
05:21 61.5 °F 57.9 °F 30.16 in NE 12.7 mph 12.7 mph 88% 0.00 in WeatherDisplay:10.37 W/m2 OVC
05:26 61.5 °F 57.9 °F 30.16 in NNE 10.4 mph 10.4 mph 88% 0.00 in WeatherDisplay:10.37 W/m2 OVC
05:31 61.4 °F 57.8 °F 30.16 in NNW 8.1 mph 8.1 mph 88% 0.00 in WeatherDisplay:10.37 W/m2 OVC
05:36 61.4 °F 57.8 °F 30.17 in NNE 11.0 mph 11.0 mph 88% 0.00 in WeatherDisplay:10.37 W/m2 OVC
05:41 61.4 °F 57.8 °F 30.17 in NNE 10.4 mph 10.4 mph 88% 0.00 in WeatherDisplay:10.37 W/m2 OVC
05:46 61.3 °F 57.7 °F 30.17 in NNE 10.4 mph 10.4 mph 88% 0.00 in WeatherDisplay:10.37 W/m2 OVC
05:51 61.2 °F 57.9 °F 30.17 in NNE 9.2 mph 9.2 mph 89% 0.00 in WeatherDisplay:10.37 W/m2 OVC
05:56 61.1 °F 57.8 °F 30.17 in NNE 10.4 mph 10.4 mph 89% 0.00 in WeatherDisplay:10.37 W/m2 OVC
06:01 61.1 °F 57.8 °F 30.18 in NE 8.1 mph 8.1 mph 89% 0.00 in WeatherDisplay:10.37 W/m2 OVC
06:06 61.1 °F 57.8 °F 30.18 in NNE 9.2 mph 9.2 mph 89% 0.00 in WeatherDisplay:10.37 W/m2 OVC
06:11 61.2 °F 57.9 °F 30.18 in NE 10.4 mph 10.4 mph 89% 0.00 in WeatherDisplay:10.37 W/m2 OVC
06:16 61.1 °F 57.8 °F 30.18 in NNE 9.2 mph 9.2 mph 89% 0.00 in WeatherDisplay:10.37 W/m2 OVC
06:21 61.0 °F 57.7 °F 30.18 in NNE 12.7 mph 12.7 mph 89% 0.00 in WeatherDisplay:10.37 W/m2 OVC
06:26 60.9 °F 57.6 °F 30.18 in NNE 12.7 mph 12.7 mph 89% 0.00 in WeatherDisplay:10.37 W/m2 OVC
06:31 60.8 °F 57.5 °F 30.18 in NE 12.7 mph 12.7 mph 89% 0.00 in WeatherDisplay:10.37 W/m2 OVC
06:36 60.7 °F 57.4 °F 30.18 in NNE 11.5 mph 11.5 mph 89% 0.00 in WeatherDisplay:10.37 W/m2 OVC
06:41 60.6 °F 57.3 °F 30.19 in NNE 10.4 mph 10.4 mph 89% 0.00 in WeatherDisplay:10.37 W/m2 OVC
06:46 60.5 °F 57.6 °F 30.19 in NE 10.4 mph 10.4 mph 90% 0.00 in WeatherDisplay:10.37 W/m2 OVC
06:51 60.5 °F 57.6 °F 30.19 in NE 8.1 mph 8.1 mph 90% 0.00 in WeatherDisplay:10.37 W/m2 OVC
06:56 60.6 °F 57.7 °F 30.19 in NE 10.4 mph 10.4 mph 90% 0.00 in WeatherDisplay:10.37 W/m2 OVC
07:01 60.6 °F 57.3 °F 30.19 in North 12.0 mph 12.0 mph 89% 0.00 in WeatherDisplay:10.37 W/m2 OVC
07:06 60.7 °F 57.4 °F 30.19 in NNW 11.5 mph 11.5 mph 89% 0.00 in WeatherDisplay:10.37 W/m2 OVC
07:11 60.6 °F 57.3 °F 30.19 in NNE 9.2 mph 9.2 mph 89% 0.00 in WeatherDisplay:10.37 W/m2 OVC
07:16 60.6 °F 57.3 °F 30.19 in NNE 13.8 mph 13.8 mph 89% 0.00 in WeatherDisplay:10.37 W/m2 OVC
07:21 60.6 °F 57.3 °F 30.19 in NE 13.8 mph 13.8 mph 89% 0.00 in WeatherDisplay:10.37 W/m2 OVC
07:26 60.5 °F 57.2 °F 30.19 in NE 12.7 mph 12.7 mph 89% 0.00 in WeatherDisplay:10.37 W/m2 OVC
07:31 60.5 °F 57.2 °F 30.19 in NE 12.7 mph 12.7 mph 89% 0.00 in WeatherDisplay:10.37 W/m2 OVC
07:36 60.4 °F 57.1 °F 30.19 in NE 11.5 mph 11.5 mph 89% 0.00 in WeatherDisplay:10.37 W/m2 OVC
07:41 60.4 °F 57.1 °F 30.19 in NNE 11.5 mph 11.5 mph 89% 0.00 in WeatherDisplay:10.37 W/m2 OVC
07:46 60.3 °F 57.0 °F 30.19 in NNE 10.4 mph 10.4 mph 89% 0.00 in WeatherDisplay:10.37 W/m2 OVC
07:51 60.1 °F 56.8 °F 30.20 in NNE 10.4 mph 10.4 mph 89% 0.00 in WeatherDisplay:10.37 W/m2 OVC
07:56 60.1 °F 57.2 °F 30.20 in NNE 10.4 mph 10.4 mph 90% 0.00 in WeatherDisplay:10.37 W/m2 OVC
08:01 60.0 °F 57.1 °F 30.20 in NNE 11.5 mph 11.5 mph 90% 0.00 in WeatherDisplay:10.37 W/m2 OVC
08:06 59.9 °F 57.0 °F 30.20 in NNE 11.5 mph 11.5 mph 90% 0.00 in WeatherDisplay:10.37 W/m2 OVC
08:11 59.9 °F 57.0 °F 30.20 in NE 10.4 mph 10.4 mph 90% 0.00 in WeatherDisplay:10.37 W/m2 OVC
08:16 59.9 °F 57.0 °F 30.21 in NNE 10.4 mph 10.4 mph 90% 0.00 in WeatherDisplay:10.37 W/m2 OVC
08:21 59.9 °F 57.0 °F 30.21 in NNE 14.0 mph 14.0 mph 90% 0.00 in WeatherDisplay:10.37 W/m2 OVC
08:26 59.9 °F 57.0 °F 30.21 in NNE 12.7 mph 12.7 mph 90% 0.00 in WeatherDisplay:10.37 W/m2 OVC
08:31 59.9 °F 57.0 °F 30.21 in NNE 12.7 mph 12.7 mph 90% 0.00 in WeatherDisplay:10.37 W/m2 OVC
08:36 60.0 °F 57.1 °F 30.21 in NNE 11.5 mph 11.5 mph 90% 0.00 in WeatherDisplay:10.37 W/m2 OVC
08:41 60.1 °F 57.2 °F 30.21 in NE 8.1 mph 8.1 mph 90% 0.00 in WeatherDisplay:10.37 W/m2 OVC
08:46 60.2 °F 57.3 °F 30.21 in NNE 9.2 mph 9.2 mph 90% 0.00 in WeatherDisplay:10.37 W/m2 OVC
08:51 60.5 °F 57.2 °F 30.21 in NNE 9.2 mph 9.2 mph 89% 0.00 in WeatherDisplay:10.37 W/m2 OVC
08:56 60.7 °F 57.4 °F 30.22 in NNE 9.2 mph 9.2 mph 89% 0.00 in WeatherDisplay:10.37 W/m2 OVC
09:01 60.8 °F 57.5 °F 30.22 in NNE 10.4 mph 10.4 mph 89% 0.00 in WeatherDisplay:10.37 W/m2 OVC
09:06 60.9 °F 57.6 °F 30.22 in NNE 11.5 mph 11.5 mph 89% 0.00 in WeatherDisplay:10.37 W/m2 OVC
09:11 61.1 °F 57.8 °F 30.22 in NNE 10.4 mph 10.4 mph 89% 0.00 in WeatherDisplay:10.37 W/m2 OVC
09:16 61.5 °F 57.9 °F 30.22 in NNE 9.2 mph 9.2 mph 88% 0.00 in WeatherDisplay:10.37 W/m2 OVC
09:21 61.7 °F 58.1 °F 30.22 in NNE 11.5 mph 11.5 mph 88% 0.00 in WeatherDisplay:10.37 W/m2 OVC
09:26 61.8 °F 57.9 °F 30.22 in ENE 11.5 mph 11.5 mph 87% 0.00 in WeatherDisplay:10.37 W/m2 OVC
09:27 61.9 °F 58.0 °F 30.23 in NNE 11.5 mph 11.5 mph 87% 0.00 in WeatherDisplay:10.37 W/m2 OVC
09:32 62.2 °F 58.3 °F 30.23 in NNE 11.5 mph 11.5 mph 87% 0.00 in WeatherDisplay:10.37 W/m2 OVC
09:37 62.5 °F 58.3 °F 30.23 in North 11.5 mph 11.5 mph 86% 0.00 in WeatherDisplay:10.37 W/m2 OVC
09:42 62.5 °F 58.3 °F 30.23 in NNE 11.5 mph 11.5 mph 86% 0.00 in WeatherDisplay:10.37 W/m2 OVC
09:47 62.9 °F 58.6 °F 30.23 in NNE 6.9 mph 6.9 mph 86% 0.00 in WeatherDisplay:10.37 W/m2 OVC
09:52 63.3 °F 59.0 °F 30.23 in NNE 10.4 mph 10.4 mph 86% 0.00 in WeatherDisplay:10.37 W/m2 OVC
09:57 63.9 °F 59.0 °F 30.23 in NNE 10.4 mph 10.4 mph 84% 0.00 in WeatherDisplay:10.37 W/m2 OVC
10:02 64.1 °F 59.2 °F 30.23 in NNE 9.0 mph 9.0 mph 84% 0.00 in WeatherDisplay:10.37 W/m2 OVC
10:07 64.4 °F 59.1 °F 30.23 in NNE 9.2 mph 9.2 mph 83% 0.00 in WeatherDisplay:10.37 W/m2 OVC
10:12 64.7 °F 59.1 °F 30.23 in North 9.2 mph 9.2 mph 82% 0.00 in WeatherDisplay:10.37 W/m2 OVC
10:17 64.9 °F 59.3 °F 30.23 in NNE 11.5 mph 11.5 mph 82% 0.00 in WeatherDisplay:10.37 W/m2 OVC
10:22 65.1 °F 59.5 °F 30.23 in NE 10.4 mph 10.4 mph 82% 0.00 in WeatherDisplay:10.37 W/m2 OVC
10:27 65.4 °F 59.4 °F 30.23 in NNE 11.5 mph 11.5 mph 81% 0.00 in WeatherDisplay:10.37 W/m2 OVC
10:32 65.6 °F 59.3 °F 30.23 in NNE 11.5 mph 11.5 mph 80% 0.00 in WeatherDisplay:10.37 W/m2 OVC
10:37 65.7 °F 59.7 °F 30.23 in NNE 12.7 mph 12.7 mph 81% 0.00 in WeatherDisplay:10.37 W/m2 OVC
10:42 65.9 °F 59.2 °F 30.23 in ENE 12.7 mph 12.7 mph 79% 0.00 in WeatherDisplay:10.37 W/m2 OVC
10:47 66.2 °F 59.5 °F 30.23 in NE 9.2 mph 9.2 mph 79% 0.00 in WeatherDisplay:10.37 W/m2 OVC
10:52 66.2 °F 59.5 °F 30.23 in NNE 11.5 mph 11.5 mph 79% 0.00 in WeatherDisplay:10.37 W/m2 OVC
10:57 66.5 °F 59.8 °F 30.23 in NE 12.0 mph 12.0 mph 79% 0.00 in WeatherDisplay:10.37 W/m2 OVC
11:02 66.7 °F 59.6 °F 30.23 in NNE 12.7 mph 12.7 mph 78% 0.00 in WeatherDisplay:10.37 W/m2 OVC
11:07 66.8 °F 59.7 °F 30.23 in NNE 14.0 mph 14.0 mph 78% 0.00 in WeatherDisplay:10.37 W/m2 OVC
11:12 66.8 °F 59.7 °F 30.23 in NNE 12.7 mph 12.7 mph 78% 0.00 in WeatherDisplay:10.37 W/m2 OVC
11:17 67.2 °F 59.7 °F 30.23 in NNE 9.0 mph 11.5 mph 77% 0.00 in WeatherDisplay:10.37 W/m2 OVC
11:22 66.7 °F 59.3 °F 30.23 in NE 17.3 mph 17.3 mph 77% 0.00 in WeatherDisplay:10.37 W/m2 OVC
11:27 67.2 °F 60.1 °F 30.23 in NNE 13.8 mph 13.8 mph 78% 0.00 in WeatherDisplay:10.37 W/m2 OVC
11:32 67.6 °F 59.8 °F 30.23 in NNE 10.4 mph 10.4 mph 76% 0.00 in WeatherDisplay:10.37 W/m2 OVC
11:37 67.6 °F 59.8 °F 30.23 in North 13.8 mph 13.8 mph 76% 0.00 in WeatherDisplay:10.37 W/m2 OVC
11:42 68.1 °F 59.9 °F 30.23 in ENE 10.4 mph 10.4 mph 75% 0.00 in WeatherDisplay:10.37 W/m2 OVC
11:47 67.9 °F 59.7 °F 30.22 in NE 13.8 mph 13.8 mph 75% 0.00 in WeatherDisplay:10.37 W/m2 OVC
11:52 68.0 °F 59.8 °F 30.22 in North 10.4 mph 10.4 mph 75% 0.00 in WeatherDisplay:10.37 W/m2 OVC
11:53 67.9 °F 59.3 °F 30.22 in NNE 14.0 mph 14.0 mph 74% 0.00 in WeatherDisplay:10.37 W/m2 OVC
11:58 68.0 °F 59.8 °F 30.22 in NNE 10.4 mph 10.4 mph 75% 0.00 in WeatherDisplay:10.37 W/m2 OVC
12:03 68.2 °F 60.0 °F 30.22 in North 12.0 mph 12.0 mph 75% 0.00 in WeatherDisplay:10.37 W/m2 OVC
12:08 68.6 °F 60.0 °F 30.22 in NNE 10.4 mph 10.4 mph 74% 0.00 in WeatherDisplay:10.37 W/m2 OVC
12:13 68.9 °F 59.9 °F 30.22 in NNE 11.5 mph 11.5 mph 73% 0.00 in WeatherDisplay:10.37 W/m2 OVC
12:18 69.0 °F 60.0 °F 30.22 in North 11.5 mph 11.5 mph 73% 0.00 in WeatherDisplay:10.37 W/m2 OVC
12:23 69.3 °F 59.9 °F 30.22 in North 12.7 mph 12.7 mph 72% 0.00 in WeatherDisplay:10.37 W/m2 OVC
12:28 69.3 °F 60.3 °F 30.22 in NNE 11.5 mph 11.5 mph 73% 0.00 in WeatherDisplay:10.37 W/m2 OVC
12:33 69.6 °F 60.2 °F 30.22 in NNE 13.0 mph 13.0 mph 72% 0.00 in WeatherDisplay:10.37 W/m2 OVC
12:38 69.4 °F 60.0 °F 30.21 in North 12.7 mph 12.7 mph 72% 0.00 in WeatherDisplay:10.37 W/m2 OVC
12:43 69.0 °F 59.6 °F 30.21 in NE 12.0 mph 12.0 mph 72% 0.00 in WeatherDisplay:10.37 W/m2 OVC
12:48 69.0 °F 59.6 °F 30.21 in North 11.5 mph 11.5 mph 72% 0.00 in WeatherDisplay:10.37 W/m2 OVC
12:53 69.2 °F 60.2 °F 30.20 in ENE 10.4 mph 10.4 mph 73% 0.00 in WeatherDisplay:10.37 W/m2 OVC
12:58 69.7 °F 60.3 °F 30.20 in NNE 9.2 mph 9.2 mph 72% 0.00 in WeatherDisplay:10.37 W/m2 OVC
13:03 70.4 °F 60.1 °F 30.20 in NNE 11.5 mph 11.5 mph 70% 0.00 in WeatherDisplay:10.37 W/m2 OVC
13:04 70.5 °F 60.2 °F 30.20 in ENE 11.5 mph 11.5 mph 70% 0.00 in WeatherDisplay:10.37 W/m2 OVC
13:09 71.1 °F 60.8 °F 30.20 in NNE 11.5 mph 11.5 mph 70% 0.00 in WeatherDisplay:10.37 W/m2 OVC
13:14 71.1 °F 60.4 °F 30.20 in NNE 12.0 mph 12.0 mph 69% 0.00 in WeatherDisplay:10.37 W/m2 OVC
13:19 71.1 °F 60.8 °F 30.19 in NNE 13.0 mph 13.0 mph 70% 0.00 in WeatherDisplay:10.37 W/m2 OVC
13:24 71.1 °F 60.8 °F 30.19 in NNE 11.5 mph 11.5 mph 70% 0.00 in WeatherDisplay:10.37 W/m2 OVC
13:29 71.0 °F 60.3 °F 30.19 in NNE 12.0 mph 12.0 mph 69% 0.00 in WeatherDisplay:10.37 W/m2 OVC
13:34 71.7 °F 61.0 °F 30.19 in NNE 9.0 mph 9.0 mph 69% 0.00 in WeatherDisplay:10.37 W/m2 OVC
13:39 71.7 °F 60.6 °F 30.19 in NNW 11.5 mph 11.5 mph 68% 0.00 in WeatherDisplay:10.37 W/m2 OVC
13:44 71.9 °F 60.3 °F 30.18 in NNE 9.0 mph 9.0 mph 67% 0.00 in WeatherDisplay:10.37 W/m2 OVC
13:49 71.9 °F 60.8 °F 30.18 in ENE 10.4 mph 10.4 mph 68% 0.00 in WeatherDisplay:10.37 W/m2 OVC
13:54 72.2 °F 60.6 °F 30.18 in NNE 14.0 mph 14.0 mph 67% 0.00 in WeatherDisplay:10.37 W/m2 OVC
13:59 72.2 °F 60.6 °F 30.18 in NNE 9.2 mph 9.2 mph 67% 0.00 in WeatherDisplay:10.37 W/m2 OVC
14:04 72.0 °F 60.4 °F 30.18 in NNE 12.7 mph 12.7 mph 67% 0.00 in WeatherDisplay:10.37 W/m2 OVC
14:09 71.9 °F 60.8 °F 30.18 in NE 12.7 mph 12.7 mph 68% 0.00 in WeatherDisplay:10.37 W/m2 OVC
14:14 71.5 °F 60.0 °F 30.17 in NNE 12.0 mph 12.0 mph 67% 0.00 in WeatherDisplay:10.37 W/m2 OVC
14:19 71.5 °F 60.4 °F 30.17 in NNE 11.5 mph 11.5 mph 68% 0.00 in WeatherDisplay:10.37 W/m2 OVC
14:24 72.0 °F 60.4 °F 30.17 in NNE 10.4 mph 10.4 mph 67% 0.00 in WeatherDisplay:10.37 W/m2 OVC
14:29 72.0 °F 60.4 °F 30.17 in NNE 10.4 mph 10.4 mph 67% 0.00 in WeatherDisplay:10.37 W/m2 OVC
14:34 72.4 °F 60.8 °F 30.17 in North 10.0 mph 10.0 mph 67% 0.00 in WeatherDisplay:10.37 W/m2 OVC
14:39 72.0 °F 60.4 °F 30.17 in NNE 10.4 mph 10.4 mph 67% 0.00 in WeatherDisplay:10.37 W/m2 OVC
14:44 72.0 °F 60.4 °F 30.17 in NNW 14.0 mph 14.0 mph 67% 0.00 in WeatherDisplay:10.37 W/m2 OVC
14:49 71.8 °F 60.2 °F 30.17 in NNE 13.8 mph 13.8 mph 67% 0.00 in WeatherDisplay:10.37 W/m2 OVC
14:54 72.2 °F 60.6 °F 30.17 in North 13.8 mph 13.8 mph 67% 0.00 in WeatherDisplay:10.37 W/m2 OVC
14:55 72.2 °F 60.6 °F 30.17 in North 13.8 mph 13.8 mph 67% 0.00 in WeatherDisplay:10.37 W/m2 OVC
15:00 72.5 °F 60.1 °F 30.17 in East 9.2 mph 9.2 mph 65% 0.00 in WeatherDisplay:10.37 W/m2 OVC
15:02 72.4 °F 60.4 °F 30.17 in North 10.4 mph 10.4 mph 66% 0.00 in WeatherDisplay:10.37 W/m2 OVC
15:07 72.2 °F 60.2 °F 30.17 in ENE 11.5 mph 11.5 mph 66% 0.00 in WeatherDisplay:10.37 W/m2 OVC
15:12 72.7 °F 60.3 °F 30.17 in NNE 11.5 mph 11.5 mph 65% 0.00 in WeatherDisplay:10.37 W/m2 OVC
15:17 72.8 °F 60.3 °F 30.17 in NNE 11.5 mph 11.5 mph 65% 0.00 in WeatherDisplay:10.37 W/m2 OVC
15:22 72.6 °F 60.2 °F 30.17 in NE 11.5 mph 11.5 mph 65% 0.00 in WeatherDisplay:10.37 W/m2 OVC
15:27 72.6 °F 60.2 °F 30.17 in NNE 11.5 mph 11.5 mph 65% 0.00 in WeatherDisplay:10.37 W/m2 OVC
15:32 72.6 °F 60.6 °F 30.17 in NNE 10.4 mph 10.4 mph 66% 0.00 in WeatherDisplay:10.37 W/m2 OVC
15:37 72.5 °F 60.1 °F 30.17 in NNE 11.5 mph 11.5 mph 65% 0.00 in WeatherDisplay:10.37 W/m2 OVC
15:42 72.6 °F 60.2 °F 30.17 in ENE 6.0 mph 6.0 mph 65% 0.00 in WeatherDisplay:10.37 W/m2 OVC
15:47 72.8 °F 59.9 °F 30.17 in NNE 10.4 mph 10.4 mph 64% 0.00 in WeatherDisplay:10.37 W/m2 OVC
15:52 72.8 °F 59.9 °F 30.17 in NE 10.4 mph 10.4 mph 64% 0.00 in WeatherDisplay:10.37 W/m2 OVC
15:57 72.9 °F 60.4 °F 30.17 in NNE 6.9 mph 6.9 mph 65% 0.00 in WeatherDisplay:10.37 W/m2 OVC
16:02 72.8 °F 59.9 °F 30.17 in NE 6.9 mph 6.9 mph 64% 0.00 in WeatherDisplay:10.37 W/m2 OVC
16:07 72.6 °F 59.3 °F 30.17 in NNE 13.0 mph 13.0 mph 63% 0.00 in WeatherDisplay:10.37 W/m2 OVC
16:12 72.0 °F 60.0 °F 30.17 in North 11.5 mph 11.5 mph 66% 0.00 in WeatherDisplay:10.37 W/m2 OVC
16:17 72.1 °F 60.1 °F 30.17 in NNE 11.5 mph 11.5 mph 66% 0.00 in WeatherDisplay:10.37 W/m2 OVC
16:22 72.4 °F 59.5 °F 30.17 in NE 11.5 mph 11.5 mph 64% 0.00 in WeatherDisplay:10.37 W/m2 OVC
16:27 72.3 °F 60.3 °F 30.17 in NE 11.5 mph 11.5 mph 66% 0.00 in WeatherDisplay:10.37 W/m2 OVC
16:32 72.6 °F 60.2 °F 30.17 in East 11.5 mph 11.5 mph 65% 0.00 in WeatherDisplay:10.37 W/m2 OVC
16:37 72.7 °F 60.3 °F 30.17 in NNE 9.2 mph 9.2 mph 65% 0.00 in WeatherDisplay:10.37 W/m2 OVC
16:42 72.9 °F 60.4 °F 30.17 in North 9.2 mph 9.2 mph 65% 0.00 in WeatherDisplay:10.37 W/m2 OVC
16:47 72.3 °F 59.4 °F 30.17 in ENE 12.0 mph 12.0 mph 64% 0.00 in WeatherDisplay:10.37 W/m2 OVC
16:48 72.3 °F 59.4 °F 30.17 in ENE 11.5 mph 11.5 mph 64% 0.00 in WeatherDisplay:10.37 W/m2 OVC
16:53 71.9 °F 59.5 °F 30.17 in NNE 10.4 mph 10.4 mph 65% 0.00 in WeatherDisplay:10.37 W/m2 OVC
16:58 71.7 °F 59.7 °F 30.17 in NNE 13.0 mph 13.0 mph 66% 0.00 in WeatherDisplay:10.37 W/m2 OVC
17:03 71.5 °F 59.5 °F 30.17 in NE 12.7 mph 12.7 mph 66% 0.00 in WeatherDisplay:10.37 W/m2 OVC
17:08 71.3 °F 59.8 °F 30.17 in NNE 11.0 mph 11.0 mph 67% 0.00 in WeatherDisplay:10.37 W/m2 OVC
17:13 71.0 °F 59.5 °F 30.17 in North 11.0 mph 11.0 mph 67% 0.00 in WeatherDisplay:10.37 W/m2 OVC
17:18 70.9 °F 59.8 °F 30.17 in NE 11.5 mph 11.5 mph 68% 0.00 in WeatherDisplay:10.37 W/m2 OVC
17:23 70.7 °F 59.2 °F 30.17 in NE 11.0 mph 11.0 mph 67% 0.00 in WeatherDisplay:10.37 W/m2 OVC
17:28 70.6 °F 59.5 °F 30.17 in NNE 9.2 mph 9.2 mph 68% 0.00 in WeatherDisplay:10.37 W/m2 OVC
17:33 70.4 °F 59.3 °F 30.17 in NE 10.4 mph 10.4 mph 68% 0.00 in WeatherDisplay:10.37 W/m2 OVC
17:38 70.3 °F 59.6 °F 30.17 in NNE 8.1 mph 8.1 mph 69% 0.00 in WeatherDisplay:10.37 W/m2 OVC
17:43 70.1 °F 59.5 °F 30.17 in NNE 9.2 mph 9.2 mph 69% 0.00 in WeatherDisplay:10.37 W/m2 OVC
17:48 69.9 °F 59.3 °F 30.17 in NNE 6.9 mph 6.9 mph 69% 0.00 in WeatherDisplay:10.37 W/m2 OVC
17:49 69.9 °F 59.3 °F 30.17 in NNE 6.9 mph 6.9 mph 69% 0.00 in WeatherDisplay:10.37 W/m2 OVC
17:54 69.7 °F 59.5 °F 30.17 in East 9.0 mph 9.0 mph 70% 0.00 in WeatherDisplay:10.37 W/m2 OVC
17:59 69.5 °F 59.3 °F 30.17 in East 6.9 mph 6.9 mph 70% 0.00 in WeatherDisplay:10.37 W/m2 OVC
18:04 69.3 °F 59.5 °F 30.17 in NNE 9.2 mph 9.2 mph 71% 0.00 in WeatherDisplay:10.37 W/m2 OVC
18:09 69.1 °F 59.3 °F 30.17 in NE 5.8 mph 5.8 mph 71% 0.00 in WeatherDisplay:10.37 W/m2 OVC
18:14 68.7 °F 58.9 °F 30.17 in North 5.8 mph 5.8 mph 71% 0.00 in WeatherDisplay:10.37 W/m2 OVC
18:19 68.4 °F 59.0 °F 30.17 in ENE 5.0 mph 5.0 mph 72% 0.00 in WeatherDisplay:10.37 W/m2 OVC
18:24 68.1 °F 58.7 °F 30.17 in NNE 5.8 mph 5.8 mph 72% 0.00 in WeatherDisplay:10.37 W/m2 OVC
18:29 67.7 °F 58.7 °F 30.18 in NNE 6.9 mph 6.9 mph 73% 0.00 in WeatherDisplay:10.37 W/m2 OVC
18:34 67.2 °F 58.6 °F 30.18 in NNE 5.8 mph 5.8 mph 74% 0.00 in WeatherDisplay:10.37 W/m2 OVC
18:39 66.7 °F 58.5 °F 30.18 in NNE 5.8 mph 5.8 mph 75% 0.00 in WeatherDisplay:10.37 W/m2 OVC
18:44 66.3 °F 58.1 °F 30.18 in NNE 4.6 mph 4.6 mph 75% 0.00 in WeatherDisplay:10.37 W/m2 OVC
18:49 65.9 °F 58.1 °F 30.18 in NNE 5.8 mph 5.8 mph 76% 0.00 in WeatherDisplay:10.37 W/m2 OVC
18:54 65.6 °F 58.2 °F 30.18 in North 4.6 mph 4.6 mph 77% 0.00 in WeatherDisplay:10.37 W/m2 OVC
18:59 65.3 °F 57.9 °F 30.18 in North 8.1 mph 8.1 mph 77% 0.00 in WeatherDisplay:10.37 W/m2 OVC
19:04 65.1 °F 57.7 °F 30.18 in NNE 6.9 mph 6.9 mph 77% 0.00 in WeatherDisplay:10.37 W/m2 OVC
19:09 64.9 °F 57.9 °F 30.18 in ENE 3.5 mph 3.5 mph 78% 0.00 in WeatherDisplay:10.37 W/m2 OVC
19:14 64.7 °F 57.7 °F 30.18 in NNE 6.9 mph 6.9 mph 78% 0.00 in WeatherDisplay:10.37 W/m2 OVC
19:19 64.6 °F 57.9 °F 30.18 in NNE 4.0 mph 4.0 mph 79% 0.00 in WeatherDisplay:10.37 W/m2 OVC
19:24 64.5 °F 57.8 °F 30.18 in NNE 8.1 mph 8.1 mph 79% 0.00 in WeatherDisplay:10.37 W/m2 OVC
19:29 64.3 °F 57.6 °F 30.18 in NNE 8.1 mph 8.1 mph 79% 0.00 in WeatherDisplay:10.37 W/m2 OVC
19:34 64.2 °F 57.9 °F 30.19 in North 8.1 mph 8.1 mph 80% 0.00 in WeatherDisplay:10.37 W/m2 OVC
19:39 64.0 °F 58.1 °F 30.19 in North 3.5 mph 3.5 mph 81% 0.00 in WeatherDisplay:10.37 W/m2 OVC
19:44 63.8 °F 58.2 °F 30.19 in NE 12.0 mph 12.0 mph 82% 0.00 in WeatherDisplay:10.37 W/m2 OVC
19:49 63.5 °F 58.2 °F 30.19 in NNE 8.1 mph 8.1 mph 83% 0.00 in WeatherDisplay:10.37 W/m2 OVC
19:54 63.3 °F 58.0 °F 30.20 in North 8.0 mph 8.0 mph 83% 0.00 in WeatherDisplay:10.37 W/m2 OVC
19:59 63.1 °F 58.2 °F 30.20 in NNE 9.2 mph 9.2 mph 84% 0.00 in WeatherDisplay:10.37 W/m2 OVC
20:04 62.9 °F 58.0 °F 30.20 in NNE 5.8 mph 5.8 mph 84% 0.00 in WeatherDisplay:10.37 W/m2 OVC
20:09 62.8 °F 57.9 °F 30.20 in NNE 6.0 mph 6.0 mph 84% 0.00 in WeatherDisplay:10.37 W/m2 OVC
20:14 62.6 °F 58.0 °F 30.20 in North 10.0 mph 10.0 mph 85% 0.00 in WeatherDisplay:10.37 W/m2 OVC
20:20 62.4 °F 57.8 °F 30.20 in NNE 8.1 mph 8.1 mph 85% 0.00 in WeatherDisplay:10.37 W/m2 OVC
20:25 62.3 °F 57.7 °F 30.20 in NNE 8.1 mph 8.1 mph 85% 0.00 in WeatherDisplay:10.37 W/m2 OVC
20:30 62.2 °F 57.6 °F 30.20 in NNE 4.6 mph 4.6 mph 85% 0.00 in WeatherDisplay:10.37 W/m2 OVC
20:35 62.1 °F 57.9 °F 30.20 in NNE 4.6 mph 4.6 mph 86% 0.00 in WeatherDisplay:10.37 W/m2 OVC
20:40 62.0 °F 57.8 °F 30.20 in NE 9.0 mph 9.0 mph 86% 0.00 in WeatherDisplay:10.37 W/m2 OVC
20:45 61.9 °F 57.7 °F 30.20 in North 4.6 mph 4.6 mph 86% 0.00 in WeatherDisplay:10.37 W/m2 OVC
20:50 61.8 °F 57.6 °F 30.20 in North 5.8 mph 5.8 mph 86% 0.00 in WeatherDisplay:10.37 W/m2 OVC
20:55 61.8 °F 57.6 °F 30.21 in NE 6.9 mph 6.9 mph 86% 0.00 in WeatherDisplay:10.37 W/m2 OVC
21:00 61.6 °F 57.4 °F 30.21 in NE 8.1 mph 8.1 mph 86% 0.00 in WeatherDisplay:10.37 W/m2 OVC
21:05 61.5 °F 57.6 °F 30.21 in NNE 8.1 mph 8.1 mph 87% 0.00 in WeatherDisplay:10.37 W/m2 OVC
21:10 61.4 °F 57.5 °F 30.21 in NNE 8.1 mph 8.1 mph 87% 0.00 in WeatherDisplay:10.37 W/m2 OVC
21:15 61.3 °F 57.4 °F 30.21 in NE 5.8 mph 5.8 mph 87% 0.00 in WeatherDisplay:10.37 W/m2 OVC
21:20 61.2 °F 57.3 °F 30.21 in North 8.1 mph 8.1 mph 87% 0.00 in WeatherDisplay:10.37 W/m2 OVC
21:25 61.0 °F 57.1 °F 30.21 in North 8.1 mph 8.1 mph 87% 0.00 in WeatherDisplay:10.37 W/m2 OVC
21:30 60.9 °F 57.0 °F 30.21 in NNE 5.8 mph 5.8 mph 87% 0.00 in WeatherDisplay:10.37 W/m2 OVC
21:35 60.8 °F 57.2 °F 30.21 in NNE 8.1 mph 8.1 mph 88% 0.00 in WeatherDisplay:10.37 W/m2 OVC
21:40 60.7 °F 57.1 °F 30.21 in NNW 8.0 mph 8.0 mph 88% 0.00 in WeatherDisplay:10.37 W/m2 OVC
21:45 60.7 °F 57.1 °F 30.21 in NE 8.1 mph 8.1 mph 88% 0.00 in WeatherDisplay:10.37 W/m2 OVC
21:50 60.7 °F 57.1 °F 30.21 in NNE 6.9 mph 6.9 mph 88% 0.00 in WeatherDisplay:10.37 W/m2 OVC
21:55 60.6 °F 57.0 °F 30.22 in NNE 5.8 mph 5.8 mph 88% 0.00 in WeatherDisplay:10.37 W/m2 OVC
22:00 60.6 °F 57.0 °F 30.22 in NNE 4.6 mph 4.6 mph 88% 0.00 in WeatherDisplay:10.37 W/m2 OVC
22:05 60.6 °F 57.0 °F 30.22 in NNE 4.6 mph 4.6 mph 88% 0.00 in WeatherDisplay:10.37 W/m2 OVC
22:10 60.6 °F 57.0 °F 30.22 in NNE 6.9 mph 6.9 mph 88% 0.00 in WeatherDisplay:10.37 W/m2 OVC
22:15 60.5 °F 56.9 °F 30.22 in NNE 6.9 mph 6.9 mph 88% 0.00 in WeatherDisplay:10.37 W/m2 OVC
22:20 60.4 °F 56.8 °F 30.22 in NNE 4.6 mph 4.6 mph 88% 0.00 in WeatherDisplay:10.37 W/m2 OVC
22:25 60.3 °F 56.7 °F 30.21 in NNE 3.5 mph 3.5 mph 88% 0.00 in WeatherDisplay:10.37 W/m2 OVC
22:30 60.2 °F 56.9 °F 30.22 in NNE 3.5 mph 3.5 mph 89% 0.00 in WeatherDisplay:10.37 W/m2 OVC
22:35 60.1 °F 56.8 °F 30.22 in NNE 5.8 mph 5.8 mph 89% 0.00 in WeatherDisplay:10.37 W/m2 OVC
22:40 60.1 °F 56.8 °F 30.22 in NNE 5.8 mph 5.8 mph 89% 0.00 in WeatherDisplay:10.37 W/m2 OVC
22:45 60.0 °F 56.7 °F 30.21 in NNE 3.5 mph 3.5 mph 89% 0.00 in WeatherDisplay:10.37 W/m2 OVC
22:50 59.9 °F 56.6 °F 30.22 in NNE 3.5 mph 3.5 mph 89% 0.00 in WeatherDisplay:10.37 W/m2 OVC
22:55 59.8 °F 56.6 °F 30.22 in North 4.0 mph 4.0 mph 89% 0.00 in WeatherDisplay:10.37 W/m2 OVC
23:00 59.9 °F 56.6 °F 30.22 in NE 8.1 mph 8.1 mph 89% 0.00 in WeatherDisplay:10.37 W/m2 OVC
23:05 59.9 °F 56.6 °F 30.22 in North 8.1 mph 8.1 mph 89% 0.00 in WeatherDisplay:10.37 W/m2 OVC
23:10 59.8 °F 56.6 °F 30.22 in NNE 3.5 mph 3.5 mph 89% 0.00 in WeatherDisplay:10.37 W/m2 OVC
23:15 59.7 °F 56.5 °F 30.22 in NNE 3.5 mph 3.5 mph 89% 0.00 in WeatherDisplay:10.37 W/m2 OVC
23:20 59.6 °F 56.4 °F 30.22 in NNE 4.0 mph 4.0 mph 89% 0.00 in WeatherDisplay:10.37 W/m2 OVC
23:23 59.7 °F 56.5 °F 30.22 in NNE 3.5 mph 3.5 mph 89% 0.00 in WeatherDisplay:10.37 W/m2 OVC
23:28 59.6 °F 56.4 °F 30.22 in NE 3.5 mph 3.5 mph 89% 0.00 in WeatherDisplay:10.37 W/m2 OVC
23:33 59.6 °F 56.4 °F 30.22 in NE 3.5 mph 3.5 mph 89% 0.00 in WeatherDisplay:10.37 W/m2 OVC
23:38 59.6 °F 56.4 °F 30.22 in NE 3.5 mph 3.5 mph 89% 0.00 in WeatherDisplay:10.37 W/m2 OVC
23:43 59.5 °F 56.3 °F 30.22 in NE 3.5 mph 3.5 mph 89% 0.00 in WeatherDisplay:10.37 W/m2 OVC
23:48 59.3 °F 56.1 °F 30.23 in NE 1.2 mph   89% 0.00 in WeatherDisplay:10.37 W/m2 OVC
23:53 59.2 °F 56.3 °F 30.22 in NE 1.2 mph 1.2 mph 90% 0.00 in WeatherDisplay:10.37 W/m2 OVC
23:58 59.1 °F 56.2 °F 30.22 in NE 1.2 mph 1.2 mph 90% 0.00 in WeatherDisplay:10.37 W/m2 OVC
Smyth Weather
Compliments of Weather Underground - 3 mb